Time;durP1;ratioP1;P1;durP2;ratioP2;P2;SDS_P1;SDS_P2;PMS_P1;PMS_P2;Temp;Humidity;BMP_temperature;BMP_pressure;BME280_temperature;BME280_humidity;BME280_pressure;Samples;Min_cycle;Max_cycle;Signal;HPM_P1;HPM_P2
2022/03/24 00:01:28;;;;;;;;;45.00;38.00;;;;;12.77;70.19;102223.88;4991326;28;45221;-78
2022/03/24 00:03:54;;;;;;;;;46.00;37.25;;;;;13.19;69.48;102299.91;4972852;28;45384;-75
2022/03/24 00:06:19;;;;;;;;;50.00;39.75;;;;;11.77;67.61;102050.94;4990786;28;45370;-76
2022/03/24 00:08:45;;;;;;;;;49.75;39.00;;;;;12.37;65.52;102158.69;4990828;28;45127;-78
2022/03/24 00:11:10;;;;;;;;;48.00;38.25;;;;;13.06;64.28;102276.94;4991173;28;45161;-78
2022/03/24 00:13:36;;;;;;;;;42.25;35.75;;;;;13.01;63.30;102263.53;4991261;28;45154;-83
2022/03/24 00:16:03;;;;;;;;;40.50;37.00;;;;;13.12;66.02;102287.53;4990783;28;45570;-80
2022/03/24 00:18:31;;;;;;;;;43.50;36.00;;;;;12.69;64.12;102213.38;4990992;28;45121;-81
2022/03/24 00:20:57;;;;;;;;;44.25;37.00;;;;;13.14;62.29;102291.97;4990692;28;45287;-76
2022/03/24 00:23:22;;;;;;;;;46.00;38.50;;;;;13.12;61.37;102293.88;4990810;28;45138;-76
2022/03/24 00:25:48;;;;;;;;;43.25;36.75;;;;;12.96;63.35;102257.44;4988822;28;46577;-79
2022/03/24 00:28:13;;;;;;;;;47.25;39.50;;;;;13.11;64.09;102285.78;4989912;28;45355;-76
2022/03/24 00:30:38;;;;;;;;;45.00;35.25;;;;;12.95;63.35;102262.03;4990457;28;45093;-76
2022/03/24 00:33:03;;;;;;;;;47.75;38.00;;;;;12.75;62.34;102225.81;4991402;28;45234;-76
2022/03/24 00:35:29;;;;;;;;;47.00;37.00;;;;;12.51;62.29;102182.47;4974813;28;47373;-80
2022/03/24 00:37:54;;;;;;;;;50.00;37.25;;;;;12.61;62.67;102208.31;4999922;28;45165;-78
2022/03/24 00:40:20;;;;;;;;;48.25;38.00;;;;;12.76;60.99;102233.03;5003299;28;45605;-79
2022/03/24 00:42:45;;;;;;;;;45.75;37.50;;;;;13.01;57.08;102271.72;4998665;28;44624;-76
2022/03/24 00:45:12;;;;;;;;;47.75;37.75;;;;;12.48;58.66;102182.66;4998761;28;45228;-77
2022/03/24 00:47:42;;;;;;;;;46.75;37.50;;;;;12.94;56.61;102262.13;4997671;28;45248;-76
2022/03/24 00:50:10;;;;;;;;;44.00;38.00;;;;;12.55;58.48;102202.31;4994835;28;45304;-77
2022/03/24 00:52:41;;;;;;;;;45.25;36.25;;;;;12.96;58.96;102273.81;4992873;28;45154;-76
2022/03/24 00:55:12;;;;;;;;;40.00;34.00;;;;;12.95;62.23;102267.47;4989490;28;45999;-76
2022/03/24 00:57:39;;;;;;;;;48.25;37.75;;;;;12.57;60.87;102204.00;4972115;28;45077;-78
2022/03/24 01:00:05;;;;;;;;;39.50;35.00;;;;;12.60;64.52;102219.31;4990544;28;45493;-81
2022/03/24 01:02:31;;;;;;;;;48.00;41.25;;;;;12.63;63.13;102217.31;4989865;28;45177;-76
2022/03/24 01:04:56;;;;;;;;;54.75;39.25;;;;;12.78;64.68;102248.41;4989990;28;45098;-76
2022/03/24 01:07:21;;;;;;;;;46.25;38.75;;;;;12.69;61.88;102232.50;4990370;28;45197;-75
2022/03/24 01:09:47;;;;;;;;;46.50;37.00;;;;;11.30;68.17;101991.56;4990605;28;45217;-78
2022/03/24 01:12:13;;;;;;;;;42.50;35.00;;;;;12.75;65.93;102242.19;4990050;28;45220;-77
2022/03/24 01:14:39;;;;;;;;;49.75;37.75;;;;;12.50;62.07;102194.38;4989739;28;45524;-75
2022/03/24 01:17:07;;;;;;;;;49.25;37.50;;;;;12.83;60.67;102254.50;4989943;28;45186;-75
2022/03/24 01:19:32;;;;;;;;;48.00;40.00;;;;;12.01;59.24;102133.28;4977112;28;45032;-75
2022/03/24 01:21:59;;;;;;;;;48.25;39.00;;;;;12.75;61.97;102248.53;4990097;28;45168;-77
2022/03/24 01:24:25;;;;;;;;;50.00;40.25;;;;;12.72;60.51;102240.50;4989901;28;46040;-75
2022/03/24 01:26:50;;;;;;;;;51.50;37.50;;;;;12.29;60.65;102171.81;4989136;28;45225;-75
2022/03/24 01:29:16;;;;;;;;;48.50;36.00;;;;;12.64;62.01;102240.03;4975343;28;45201;-76
2022/03/24 01:31:42;;;;;;;;;47.25;37.25;;;;;12.57;61.21;102230.38;4989271;28;45106;-77
2022/03/24 01:34:10;;;;;;;;;53.75;38.00;;;;;12.42;63.23;102196.63;4989757;28;45606;-76
2022/03/24 01:36:36;;;;;;;;;53.25;40.25;;;;;12.39;63.31;102192.19;4989036;28;45209;-76
2022/03/24 01:39:01;;;;;;;;;42.25;35.25;;;;;12.51;64.57;102208.88;4987945;28;45144;-76
2022/03/24 01:41:26;;;;;;;;;43.25;37.25;;;;;12.65;62.15;102237.22;4989815;28;45031;-75
2022/03/24 01:43:52;;;;;;;;;42.25;35.25;;;;;12.16;64.65;102157.91;4988898;28;45429;-75
2022/03/24 01:46:23;;;;;;;;;41.00;33.50;;;;;11.33;62.85;102026.81;4988762;28;45148;-77
2022/03/24 01:48:49;;;;;;;;;53.25;39.50;;;;;12.62;61.67;102241.94;4984158;28;45121;-76
2022/03/24 01:51:15;;;;;;;;;41.25;34.50;;;;;12.60;62.08;102232.97;4989824;28;45120;-76
2022/03/24 01:53:40;;;;;;;;;46.75;38.25;;;;;12.57;62.74;102234.03;4988856;28;45468;-75
2022/03/24 01:56:07;;;;;;;;;51.25;39.75;;;;;12.15;62.02;102163.44;4989382;28;45039;-76
2022/03/24 01:58:37;;;;;;;;;44.75;32.75;;;;;12.17;63.02;102176.06;4989777;28;45131;-76
2022/03/24 02:01:29;;;;;;;;;44.75;37.25;;;;;12.50;62.44;102228.94;4988854;28;45332;-77
2022/03/24 02:03:56;;;;;;;;;47.75;36.00;;;;;12.48;63.67;102242.69;4989088;28;45751;-76
2022/03/24 02:06:21;;;;;;;;;41.75;35.50;;;;;12.12;64.06;102171.81;4987510;28;45074;-76
2022/03/24 02:08:47;;;;;;;;;40.75;36.50;;;;;12.44;66.86;102224.69;4989624;28;45287;-75
2022/03/24 02:11:12;;;;;;;;;41.50;36.00;;;;;10.56;65.95;101913.56;4989415;28;45210;-76
2022/03/24 02:13:38;;;;;;;;;41.50;33.75;;;;;11.82;65.52;102134.22;4971714;28;47426;-76
2022/03/24 02:16:11;;;;;;;;;46.25;37.75;;;;;12.38;65.43;102230.47;4987406;28;45184;-76
2022/03/24 02:18:36;;;;;;;;;43.50;37.75;;;;;11.67;67.12;102110.44;4971124;28;45154;-76
2022/03/24 02:21:02;;;;;;;;;42.00;35.75;;;;;12.27;65.97;102222.84;4988775;28;45307;-76
2022/03/24 02:23:27;;;;;;;;;44.00;33.00;;;;;12.31;68.23;102237.16;4988570;28;46246;-77
2022/03/24 02:25:54;;;;;;;;;42.25;36.25;;;;;12.19;64.92;102211.41;4988118;28;45182;-76
2022/03/24 02:28:23;;;;;;;;;45.25;36.25;;;;;12.28;66.56;102235.50;4981711;28;45328;-75
2022/03/24 02:30:49;;;;;;;;;46.50;36.00;;;;;11.84;66.41;102167.72;4988668;28;45038;-76
2022/03/24 02:33:14;;;;;;;;;43.00;35.00;;;;;12.25;65.34;102238.38;4987865;28;45358;-77
2022/03/24 02:35:40;;;;;;;;;46.50;36.00;;;;;12.17;67.29;102218.81;4988097;28;45224;-76
2022/03/24 02:38:05;;;;;;;;;48.75;38.00;;;;;12.20;68.82;102224.97;4988434;28;45254;-75
2022/03/24 02:40:32;;;;;;;;;49.50;37.25;;;;;12.20;71.64;102224.97;4987981;28;45201;-75
2022/03/24 02:42:57;;;;;;;;;44.50;35.75;;;;;12.15;67.33;102224.31;4987947;28;45213;-76
2022/03/24 02:45:23;;;;;;;;;45.50;35.00;;;;;11.85;66.98;102176.78;4987938;28;45097;-76
2022/03/24 02:47:49;;;;;;;;;43.75;36.75;;;;;11.72;68.49;102156.53;4986781;28;45161;-76
2022/03/24 02:50:15;;;;;;;;;43.75;36.50;;;;;12.13;68.64;102230.81;4988461;28;45670;-76
2022/03/24 02:52:41;;;;;;;;;41.75;33.25;;;;;12.10;70.82;102228.22;4988072;28;45122;-75
2022/03/24 02:55:07;;;;;;;;;40.50;37.00;;;;;11.50;73.59;102133.03;4969982;28;45028;-76
2022/03/24 02:57:33;;;;;;;;;50.50;35.25;;;;;11.62;76.76;102158.81;4988373;28;45700;-76
2022/03/24 02:59:59;;;;;;;;;49.25;37.75;;;;;12.04;69.93;102236.72;4987686;28;45023;-76
2022/03/24 03:02:25;;;;;;;;;45.50;36.00;;;;;11.89;71.18;102214.72;4987892;28;45534;-75
2022/03/24 03:04:53;;;;;;;;;54.75;42.00;;;;;11.72;74.65;102175.59;4987133;28;44939;-76
2022/03/24 03:07:20;;;;;;;;;43.25;37.50;;;;;12.00;71.02;102229.66;4984402;28;45276;-79
2022/03/24 03:09:46;;;;;;;;;49.25;36.75;;;;;11.55;70.30;102151.88;4986932;28;45430;-76
2022/03/24 03:12:11;;;;;;;;;48.00;37.00;;;;;11.97;73.34;102224.38;4988271;28;45671;-75
2022/03/24 03:14:38;;;;;;;;;41.50;37.50;;;;;11.60;69.33;102167.03;4988461;28;45138;-77
2022/03/24 03:17:04;;;;;;;;;40.75;33.75;;;;;11.92;71.73;102230.91;4988611;28;45151;-76
2022/03/24 03:19:30;;;;;;;;;49.75;37.25;;;;;11.91;69.81;102236.41;4988396;28;45342;-75
2022/03/24 03:21:56;;;;;;;;;44.00;36.50;;;;;11.90;71.67;102235.53;4988397;28;45193;-75
2022/03/24 03:24:22;;;;;;;;;44.25;36.25;;;;;11.88;72.60;102234.75;4980960;28;45061;-76
2022/03/24 03:26:48;;;;;;;;;52.75;41.50;;;;;11.66;72.01;102191.28;4988493;28;45347;-76
2022/03/24 03:29:14;;;;;;;;;39.75;33.50;;;;;11.87;71.66;102221.22;4986444;28;45194;-77
2022/03/24 03:31:40;;;;;;;;;40.50;35.00;;;;;11.27;70.49;102136.91;4987506;28;45622;-75
2022/03/24 03:34:08;;;;;;;;;45.25;36.75;;;;;11.27;72.03;102138.75;4988239;28;45173;-75
2022/03/24 03:36:34;;;;;;;;;40.25;35.50;;;;;11.84;71.34;102240.41;4989005;28;45079;-76
2022/03/24 03:39:00;;;;;;;;;43.75;36.75;;;;;11.83;71.54;102238.66;4984756;28;45269;-75
2022/03/24 03:41:28;;;;;;;;;44.50;35.75;;;;;11.82;71.83;102235.06;4990628;28;45727;-78
2022/03/24 03:43:53;;;;;;;;;47.25;35.25;;;;;11.80;72.11;102236.91;4978596;28;45004;-75
2022/03/24 03:46:19;;;;;;;;;51.25;36.00;;;;;11.79;71.40;102229.72;4991566;28;45343;-76
2022/03/24 03:48:45;;;;;;;;;45.50;37.00;;;;;11.61;71.61;102212.41;4991905;28;45360;-76
2022/03/24 03:51:11;;;;;;;;;45.25;34.75;;;;;11.74;70.39;102231.78;4990264;28;45508;-76
2022/03/24 03:53:38;;;;;;;;;37.75;34.75;;;;;11.73;72.56;102231.84;4991357;28;45297;-78
2022/03/24 03:56:05;;;;;;;;;40.00;35.00;;;;;11.50;71.60;102192.09;4991922;28;45045;-76
2022/03/24 03:58:31;;;;;;;;;45.75;36.75;;;;;11.74;72.88;102225.44;4991910;28;45235;-76
2022/03/24 04:00:56;;;;;;;;;38.00;30.75;;;;;10.95;71.36;102100.31;4991208;28;45216;-78
2022/03/24 04:03:34;;;;;;;;;46.00;36.00;;;;;11.14;73.86;102131.13;4992598;28;45115;-77
2022/03/24 04:06:04;;;;;;;;;44.25;37.00;;;;;11.60;72.96;102218.81;4994643;28;45203;-76
2022/03/24 04:08:31;;;;;;;;;39.25;34.50;;;;;11.33;73.43;102177.44;4974547;28;45139;-76
2022/03/24 04:10:56;;;;;;;;;45.00;36.75;;;;;11.58;74.59;102211.69;4991217;28;45232;-76
2022/03/24 04:13:22;;;;;;;;;45.00;38.75;;;;;11.15;72.39;102154.69;4992053;28;45277;-75
2022/03/24 04:15:50;;;;;;;;;47.75;38.00;;;;;11.63;73.90;102231.41;4978284;28;45052;-76
2022/03/24 04:18:16;;;;;;;;;44.00;37.00;;;;;11.31;82.24;102179.38;5003167;28;45026;-75
2022/03/24 04:20:42;;;;;;;;;52.00;40.75;;;;;11.51;73.83;102221.13;5000105;28;45886;-77
2022/03/24 04:23:08;;;;;;;;;41.00;35.00;;;;;10.48;74.18;102061.72;4996598;28;45011;-77
2022/03/24 04:25:34;;;;;;;;;42.75;36.50;;;;;11.57;72.00;102229.88;4990928;28;45130;-77
2022/03/24 04:28:01;;;;;;;;;44.25;36.25;;;;;11.55;73.04;102231.75;4991347;28;45245;-78
2022/03/24 04:30:26;;;;;;;;;50.00;35.75;;;;;11.54;72.51;102232.72;4990663;28;45206;-76
2022/03/24 04:32:53;;;;;;;;;39.50;36.00;;;;;11.54;72.71;102229.13;4990765;28;45444;-76
2022/03/24 04:35:20;;;;;;;;;41.25;36.25;;;;;11.50;70.92;102225.66;4990629;28;45188;-76
2022/03/24 04:37:46;;;;;;;;;52.00;38.50;;;;;11.14;71.85;102188.28;4990493;28;45099;-77
2022/03/24 04:40:12;;;;;;;;;45.75;35.75;;;;;11.29;72.00;102199.44;4990487;28;46217;-77
2022/03/24 04:42:39;;;;;;;;;42.25;38.25;;;;;10.61;75.06;102093.72;4990400;28;45060;-77
2022/03/24 04:45:06;;;;;;;;;48.50;36.75;;;;;11.41;76.13;102226.97;4990387;28;45077;-77
2022/03/24 04:47:32;;;;;;;;;50.50;39.00;;;;;11.08;74.15;102174.97;4990577;28;45022;-76
2022/03/24 04:49:57;;;;;;;;;41.00;36.25;;;;;10.11;75.83;102012.56;4989428;28;45488;-77
2022/03/24 04:52:22;;;;;;;;;47.00;39.75;;;;;11.19;77.26;102201.69;4989197;28;45245;-77
2022/03/24 04:54:48;;;;;;;;;42.50;37.25;;;;;11.33;75.92;102218.28;4990509;28;45086;-77
2022/03/24 04:57:14;;;;;;;;;37.25;33.25;;;;;11.40;77.27;102230.66;4990608;28;45104;-77
2022/03/24 04:59:39;;;;;;;;;47.50;35.25;;;;;11.34;78.98;102219.16;4990422;28;45159;-81
2022/03/24 05:02:06;;;;;;;;;47.25;36.00;;;;;11.38;78.21;102221.66;4990938;28;45285;-81
2022/03/24 05:04:32;;;;;;;;;42.75;38.75;;;;;10.89;88.04;102142.28;4990630;28;45944;-78
2022/03/24 05:06:58;;;;;;;;;43.50;35.75;;;;;11.38;83.70;102223.50;4990330;28;45035;-79
2022/03/24 05:09:23;;;;;;;;;39.75;36.25;;;;;11.37;79.08;102221.75;4990496;28;45785;-77
2022/03/24 05:11:49;;;;;;;;;46.00;37.00;;;;;11.28;78.83;102209.44;4990105;28;45466;-79
2022/03/24 05:14:14;;;;;;;;;41.25;35.75;;;;;11.09;78.84;102175.84;4990698;28;45085;-77
2022/03/24 05:16:40;;;;;;;;;43.50;34.75;;;;;11.31;78.41;102219.31;4989385;28;45222;-79
2022/03/24 05:19:05;;;;;;;;;40.50;32.50;;;;;11.32;79.56;102226.53;4989922;28;45726;-80
2022/03/24 05:21:32;;;;;;;;;41.50;33.50;;;;;10.38;78.95;102073.00;4989817;28;45170;-78
2022/03/24 05:23:58;;;;;;;;;40.75;36.25;;;;;11.02;79.78;102185.28;4990223;28;45419;-76
2022/03/24 05:26:24;;;;;;;;;42.25;36.25;;;;;11.00;77.95;102182.63;4990620;28;45129;-77
2022/03/24 05:28:53;;;;;;;;;44.25;37.50;;;;;11.30;77.59;102233.88;4989874;28;45584;-77
2022/03/24 05:31:20;;;;;;;;;43.25;38.00;;;;;11.30;81.60;102237.47;4989721;28;45082;-79
2022/03/24 05:33:46;;;;;;;;;55.75;42.50;;;;;10.33;79.26;102077.75;4988868;28;45942;-79
2022/03/24 05:36:11;;;;;;;;;45.75;39.00;;;;;10.92;82.05;102179.38;4979895;28;45157;-81
2022/03/24 05:38:37;;;;;;;;;41.75;36.50;;;;;11.02;85.40;102188.00;4989947;28;46049;-79
2022/03/24 05:41:03;;;;;;;;;48.50;37.25;;;;;11.27;81.05;102232.19;4989773;28;45182;-79
2022/03/24 05:43:29;;;;;;;;;47.25;36.75;;;;;11.17;81.36;102209.06;4989510;28;45078;-78
2022/03/24 05:45:55;;;;;;;;;36.50;30.00;;;;;11.28;82.18;102243.94;4989985;28;45257;-77
2022/03/24 05:48:20;;;;;;;;;49.50;40.50;;;;;10.76;81.36;102148.38;4987941;28;47036;-84
2022/03/24 05:50:45;;;;;;;;;43.25;36.50;;;;;11.26;81.45;102235.88;4988307;28;44956;-81
2022/03/24 05:53:11;;;;;;;;;48.50;38.25;;;;;10.81;81.47;102162.66;4972352;28;45233;-79
2022/03/24 05:55:38;;;;;;;;;37.25;33.00;;;;;11.09;82.29;102211.25;4972013;28;45008;-81
2022/03/24 05:58:04;;;;;;;;;44.75;39.75;;;;;10.82;83.95;102167.13;4990260;28;45715;-82
2022/03/24 06:00:30;;;;;;;;;43.50;35.75;;;;;11.00;82.21;102198.03;4988599;28;45123;-83
2022/03/24 06:02:55;;;;;;;;;42.00;37.75;;;;;11.03;82.70;102206.09;4989943;28;45201;-76
2022/03/24 06:05:23;;;;;;;;;36.00;35.00;;;;;10.94;81.26;102204.66;4990302;28;45130;-77
2022/03/24 06:07:49;;;;;;;;;40.00;37.00;;;;;10.89;82.50;102193.97;4990903;28;45631;-78
2022/03/24 06:10:14;;;;;;;;;36.25;28.50;;;;;11.05;85.29;102229.56;4989538;28;45893;-79
2022/03/24 06:12:40;;;;;;;;;46.50;36.75;;;;;10.99;83.73;102218.94;4987990;28;45182;-77
2022/03/24 06:15:06;;;;;;;;;45.00;34.25;;;;;10.15;83.06;102073.13;4989610;28;45174;-78
2022/03/24 06:17:32;;;;;;;;;37.50;35.50;;;;;10.60;81.64;102151.78;4989211;28;45545;-76
2022/03/24 06:19:57;;;;;;;;;38.50;36.00;;;;;11.13;84.37;102248.25;4988972;28;45174;-78
2022/03/24 06:22:23;;;;;;;;;46.50;37.50;;;;;11.13;82.92;102251.84;4989288;28;45723;-79
2022/03/24 06:24:48;;;;;;;;;43.75;35.75;;;;;11.12;84.19;102250.09;4989211;28;45148;-76
2022/03/24 06:27:13;;;;;;;;;45.00;38.00;;;;;11.07;82.81;102237.66;4989308;28;46113;-77
2022/03/24 06:29:39;;;;;;;;;47.25;35.75;;;;;11.12;82.88;102251.94;4989150;28;45099;-76
2022/03/24 06:32:06;;;;;;;;;48.00;38.50;;;;;11.03;83.04;102236.91;4987993;28;45145;-76
2022/03/24 06:34:31;;;;;;;;;47.50;35.50;;;;;10.30;82.65;102104.22;4983761;28;45474;-76
2022/03/24 06:36:57;;;;;;;;;52.00;41.25;;;;;10.83;90.68;102194.25;4979267;28;45461;-78
2022/03/24 06:39:23;;;;;;;;;42.25;37.00;;;;;10.93;84.62;102210.19;4988058;28;45138;-76
2022/03/24 06:41:48;;;;;;;;;48.75;40.00;;;;;11.13;84.19;102249.13;4969396;28;45494;-77
2022/03/24 06:44:14;;;;;;;;;50.25;38.75;;;;;10.85;85.94;102194.22;4987596;28;45444;-78
2022/03/24 06:46:40;;;;;;;;;48.25;39.50;;;;;11.14;85.02;102250.03;4985029;28;45965;-75
2022/03/24 06:49:06;;;;;;;;;43.75;37.25;;;;;11.14;84.83;102247.28;4988234;28;45098;-76
2022/03/24 06:51:33;;;;;;;;;47.75;38.75;;;;;10.97;85.85;102225.41;4988984;28;45205;-76
2022/03/24 06:53:59;;;;;;;;;52.25;41.75;;;;;10.98;82.81;102238.06;4988979;28;45275;-78
2022/03/24 06:56:25;;;;;;;;;45.75;39.00;;;;;11.08;84.32;102253.91;4988758;28;46148;-76
2022/03/24 06:58:51;;;;;;;;;51.00;38.25;;;;;10.95;87.62;102232.75;4980816;28;45090;-75
2022/03/24 07:01:19;;;;;;;;;50.25;38.00;;;;;11.15;84.12;102259.94;4981285;28;45543;-77
2022/03/24 07:03:45;;;;;;;;;54.50;39.75;;;;;10.53;85.46;102166.59;4988649;28;45670;-76
2022/03/24 07:06:11;;;;;;;;;53.00;40.50;;;;;11.17;87.61;102268.94;4988487;28;45646;-76
2022/03/24 07:08:37;;;;;;;;;56.25;43.75;;;;;10.97;87.85;102228.13;4987706;28;45443;-76
2022/03/24 07:11:03;;;;;;;;;41.75;35.00;;;;;11.18;86.92;102262.53;4984308;28;45493;-78
2022/03/24 07:13:30;;;;;;;;;54.25;42.75;;;;;11.19;87.84;102264.31;4988420;28;45008;-79
2022/03/24 07:15:55;;;;;;;;;49.75;40.75;;;;;11.21;86.00;102267.88;4989108;28;45054;-81
2022/03/24 07:18:20;;;;;;;;;45.00;38.50;;;;;11.17;84.16;102267.09;4992473;28;45478;-77
2022/03/24 07:20:46;;;;;;;;;50.00;42.00;;;;;10.82;85.70;102200.66;4994300;28;45209;-80
2022/03/24 07:23:11;;;;;;;;;55.25;40.00;;;;;11.25;84.26;102274.91;4972842;28;44967;-79
2022/03/24 07:25:37;;;;;;;;;51.50;40.25;;;;;11.26;83.52;102271.25;4992099;28;45676;-80
2022/03/24 07:28:05;;;;;;;;;47.50;39.25;;;;;11.17;82.99;102253.50;4989110;28;45135;-83
2022/03/24 07:30:31;;;;;;;;;54.75;39.00;;;;;11.21;83.71;102259.69;4990588;28;45105;-80
2022/03/24 07:32:58;;;;;;;;;47.00;37.25;;;;;11.15;82.94;102240.91;4989367;28;45169;-79
2022/03/24 07:35:26;;;;;;;;;39.50;34.25;;;;;11.34;81.80;102279.94;4989163;28;46122;-77
2022/03/24 07:37:53;;;;;;;;;50.25;40.50;;;;;11.35;82.53;102278.09;4985422;28;45439;-81
2022/03/24 07:40:21;;;;;;;;;56.25;41.25;;;;;10.91;83.51;102200.25;4987560;28;45186;-81
2022/03/24 07:42:47;;;;;;;;;51.75;39.50;;;;;11.17;83.00;102247.16;4987319;28;45174;-80
2022/03/24 07:45:13;;;;;;;;;35.50;32.50;;;;;10.58;83.18;102142.78;4987184;28;45137;-80
2022/03/24 07:48:17;;;;;;;;;49.50;41.00;;;;;10.98;81.68;102200.84;4987244;28;44977;-81
2022/03/24 07:50:45;;;;;;;;;49.75;38.25;;;;;11.44;82.29;102278.56;4979357;28;45492;-81
2022/03/24 07:53:14;;;;;;;;;46.75;36.50;;;;;11.46;86.54;102281.25;4987436;28;45299;-79
2022/03/24 07:55:43;;;;;;;;;49.50;38.00;;;;;10.98;82.38;102200.84;4987102;28;45942;-81
2022/03/24 07:58:10;;;;;;;;;47.00;38.75;;;;;11.48;82.70;102283.88;4986462;28;45327;-76
2022/03/24 08:00:36;;;;;;;;;52.50;41.25;;;;;11.17;87.93;102229.00;4985673;28;45208;-78
2022/03/24 08:03:02;;;;;;;;;50.25;40.75;;;;;11.54;88.18;102291.75;4969723;28;45294;-76
2022/03/24 08:05:28;;;;;;;;;46.75;38.00;;;;;11.08;84.72;102210.34;4987250;28;45077;-78
2022/03/24 08:07:54;;;;;;;;;41.00;37.00;;;;;11.49;87.37;102272.03;4985949;28;45206;-75
2022/03/24 08:10:23;;;;;;;;;54.50;42.00;;;;;11.18;97.57;102225.31;4987622;28;45440;-76
2022/03/24 08:12:48;;;;;;;;;47.00;36.25;;;;;11.61;86.61;102299.59;4985094;28;45194;-75
2022/03/24 08:15:13;;;;;;;;;38.25;36.00;;;;;11.62;83.55;102290.47;4985920;28;45046;-74
2022/03/24 08:17:39;;;;;;;;;50.25;40.25;;;;;10.99;88.78;102179.97;4986136;28;45244;-75
2022/03/24 08:20:06;;;;;;;;;41.75;36.75;;;;;11.57;83.54;102276.16;4986180;28;45541;-75
2022/03/24 08:22:31;;;;;;;;;52.50;39.00;;;;;11.67;81.74;102291.13;4986349;28;45137;-75
2022/03/24 08:24:56;;;;;;;;;50.25;39.50;;;;;11.54;81.30;102268.13;4988324;28;45065;-75
2022/03/24 08:27:22;;;;;;;;;41.75;37.00;;;;;11.60;81.77;102265.09;4989570;28;45123;-77
2022/03/24 08:29:47;;;;;;;;;48.00;38.00;;;;;11.24;82.75;102201.47;4990556;28;45118;-76
2022/03/24 08:32:12;;;;;;;;;48.75;39.75;;;;;11.78;83.18;102290.63;4991063;28;45710;-77
2022/03/24 08:34:38;;;;;;;;;50.25;40.00;;;;;11.72;79.86;102273.69;4990691;28;46350;-77
2022/03/24 08:37:04;;;;;;;;;44.50;36.25;;;;;11.72;80.49;102271.84;4990752;28;45117;-78
2022/03/24 08:39:29;;;;;;;;;49.50;37.00;;;;;11.93;84.92;102299.94;4991057;28;44984;-79
2022/03/24 08:41:55;;;;;;;;;45.75;37.00;;;;;11.99;82.66;102301.47;4989988;28;44997;-75
2022/03/24 08:44:20;;;;;;;;;46.50;40.00;;;;;11.86;80.12;102266.66;4980086;28;45337;-74
2022/03/24 08:46:46;;;;;;;;;46.75;37.75;;;;;12.05;83.80;102296.59;4987725;28;45568;-76
2022/03/24 08:49:11;;;;;;;;;46.25;36.75;;;;;12.10;86.61;102302.72;4990867;28;45324;-75
2022/03/24 08:51:37;;;;;;;;;48.00;39.25;;;;;11.89;81.68;102257.44;4990681;28;45291;-74
2022/03/24 08:54:03;;;;;;;;;52.25;40.25;;;;;12.18;85.13;102305.09;4990215;28;45567;-75
2022/03/24 08:56:29;;;;;;;;;49.25;39.00;;;;;12.21;80.54;102299.47;4990510;28;45355;-75
2022/03/24 08:58:54;;;;;;;;;39.00;34.25;;;;;12.26;82.25;102312.88;4990381;28;45082;-76
2022/03/24 09:01:21;;;;;;;;;42.00;36.00;;;;;12.17;79.75;102281.50;4990573;28;45347;-76
2022/03/24 09:03:49;;;;;;;;;46.75;38.75;;;;;12.33;80.50;102303.44;4990454;28;45130;-75
2022/03/24 09:06:15;;;;;;;;;48.00;38.25;;;;;10.93;75.72;102058.69;4990403;28;45161;-75
2022/03/24 09:08:41;;;;;;;;;51.50;40.25;;;;;12.07;76.67;102256.53;4990480;28;45236;-74
2022/03/24 09:11:07;;;;;;;;;52.00;41.00;;;;;12.31;80.85;102278.09;4972345;28;45178;-75
2022/03/24 09:13:32;;;;;;;;;51.25;41.50;;;;;12.48;79.55;102310.00;4990007;28;45123;-76
2022/03/24 09:15:58;;;;;;;;;47.75;39.25;;;;;11.88;78.22;102202.03;4990640;28;45293;-76
2022/03/24 09:18:23;;;;;;;;;42.50;36.00;;;;;12.55;78.49;102314.16;4990760;28;45140;-77
2022/03/24 09:20:48;;;;;;;;;48.50;41.50;;;;;12.52;76.75;102297.94;4972500;28;45323;-76
2022/03/24 09:23:14;;;;;;;;;43.50;36.00;;;;;12.54;78.92;102302.38;4990393;28;45817;-75
2022/03/24 09:25:39;;;;;;;;;49.00;34.75;;;;;12.11;79.67;102217.25;4989820;28;45003;-77
2022/03/24 09:28:06;;;;;;;;;46.50;37.25;;;;;12.58;78.52;102284.00;4990059;28;45169;-76
2022/03/24 09:30:32;;;;;;;;;49.50;39.50;;;;;12.73;75.19;102302.31;4990138;28;45144;-77
2022/03/24 09:32:57;;;;;;;;;54.75;40.50;;;;;12.46;74.75;102250.03;4989283;28;45546;-76
2022/03/24 09:35:23;;;;;;;;;54.25;41.75;;;;;12.66;76.01;102285.38;4989883;28;45148;-75
2022/03/24 09:37:48;;;;;;;;;47.25;39.25;;;;;12.73;80.84;102286.84;4989598;28;45174;-75
2022/03/24 09:40:14;;;;;;;;;51.50;41.00;;;;;12.89;80.62;102305.16;4989747;28;45113;-75
2022/03/24 09:42:40;;;;;;;;;47.00;39.00;;;;;12.91;87.64;102309.53;4989235;28;45694;-75
2022/03/24 09:45:07;;;;;;;;;51.50;40.25;;;;;12.67;84.16;102253.50;4989555;28;45041;-76
2022/03/24 09:47:33;;;;;;;;;50.00;39.50;;;;;12.65;79.21;102250.84;4989762;28;45135;-76
2022/03/24 09:49:59;;;;;;;;;50.50;41.50;;;;;12.89;79.14;102286.91;4989068;28;45131;-76
2022/03/24 09:52:25;;;;;;;;;53.50;43.25;;;;;13.05;76.20;102299.75;4989031;28;45607;-76
2022/03/24 09:54:51;;;;;;;;;53.25;39.75;;;;;12.64;74.41;102219.09;4989111;28;45015;-78
2022/03/24 09:57:16;;;;;;;;;50.25;40.25;;;;;12.79;78.94;102239.22;4989480;28;45059;-78
2022/03/24 09:59:43;;;;;;;;;50.75;38.00;;;;;12.71;81.20;102222.38;4989646;28;45010;-76
2022/03/24 10:02:09;;;;;;;;;47.50;38.50;;;;;12.24;74.71;102134.84;4989103;28;45800;-75
2022/03/24 10:04:53;;;;;;;;;48.50;39.25;;;;;12.66;75.21;102194.44;4988562;28;45064;-75
2022/03/24 10:07:25;;;;;;;;;52.75;42.50;;;;;13.26;78.00;102289.56;4988605;28;45352;-77
2022/03/24 10:09:55;;;;;;;;;52.00;42.00;;;;;13.15;77.83;102271.88;4987117;28;45422;-76
2022/03/24 10:12:38;;;;;;;;;53.75;40.75;;;;;13.33;80.11;102293.72;4988953;28;46659;-78
2022/03/24 10:15:11;;;;;;;;;48.75;38.25;;;;;13.27;83.38;102284.03;4987755;28;45045;-76
2022/03/24 10:17:38;;;;;;;;;43.75;37.75;;;;;12.92;80.68;102209.44;4987681;28;45175;-76
2022/03/24 10:20:07;;;;;;;;;54.25;40.00;;;;;13.39;84.51;102285.22;4989242;28;45456;-76
2022/03/24 10:22:33;;;;;;;;;46.25;38.50;;;;;13.39;83.10;102293.44;4988774;28;45719;-76
2022/03/24 10:25:03;;;;;;;;;50.50;40.50;;;;;13.41;84.33;102288.75;4988499;28;44983;-77
2022/03/24 10:27:29;;;;;;;;;49.00;39.00;;;;;11.73;85.74;101994.81;4988157;28;45268;-78
2022/03/24 10:29:57;;;;;;;;;51.50;41.25;;;;;12.83;86.53;102199.91;4989073;28;45022;-76
2022/03/24 10:32:30;;;;;;;;;49.75;41.00;;;;;13.43;82.23;102275.88;4988499;28;45363;-75
2022/03/24 10:35:09;;;;;;;;;40.25;35.50;;;;;13.48;80.34;102284.69;4987030;28;45447;-76
2022/03/24 10:37:35;;;;;;;;;51.00;40.00;;;;;13.50;80.64;102288.25;4977404;28;45091;-79
2022/03/24 10:40:05;;;;;;;;;50.50;40.75;;;;;13.51;78.45;102270.88;4988179;28;45126;-77
2022/03/24 10:42:36;;;;;;;;;49.75;41.00;;;;;13.27;80.20;102229.41;4986832;28;45531;-76
2022/03/24 10:45:09;;;;;;;;;53.75;39.50;;;;;13.49;73.03;102257.31;4988247;28;45306;-75
2022/03/24 10:48:00;;;;;;;;;52.25;39.00;;;;;13.59;73.08;102259.53;4987665;28;45066;-75
2022/03/24 10:50:32;;;;;;;;;55.25;40.50;;;;;13.55;72.56;102245.16;4988565;28;45118;-75
2022/03/24 10:53:19;;;;;;;;;50.00;39.50;;;;;13.82;76.70;102280.13;4988265;28;45404;-80
2022/03/24 10:55:45;;;;;;;;;49.50;38.75;;;;;13.85;80.63;102271.75;4988418;28;45090;-76
2022/03/24 10:58:27;;;;;;;;;45.25;36.75;;;;;13.53;83.11;102207.94;4988267;28;45133;-77
2022/03/24 11:00:57;;;;;;;;;48.75;40.25;;;;;13.79;78.14;102256.59;4988357;28;45190;-76
2022/03/24 11:03:23;;;;;;;;;47.75;36.75;;;;;13.28;82.07;102167.44;4987884;28;46940;-75
2022/03/24 11:05:49;;;;;;;;;45.75;36.75;;;;;13.92;77.09;102273.16;4986813;28;45109;-75
2022/03/24 11:08:17;;;;;;;;;45.75;36.25;;;;;13.95;78.55;102270.25;4975298;28;45094;-77